Terminal Aerodrome Forecast
Issued by NWS Bismarck, ND

Home | Current Version | Previous Version | Graphics & Text | Print | Product List | Glossary On
Versions: 1 2 3 4 5 6 7 8 9 10 11 12 13 14 15 16 17
055
FTUS43 KBIS 211443 AAC
TAFISN
TAF AMD
KISN 211443Z 2115/2212 10007KT P6SM FEW008
     FM211700 10012KT P6SM BKN150
     FM220900 13013KT P6SM OVC035
     FM221100 13013KT P6SM OVC025=

USA.gov is the U.S. government's official web portal to all federal, state and local government web resources and services.